Time;durP1;ratioP1;P1;durP2;ratioP2;P2;SDS_P1;SDS_P2;PMS_P1;PMS_P2;Temp;Humidity;BMP_temperature;BMP_pressure;BME280_temperature;BME280_humidity;BME280_pressure;Samples;Min_cycle;Max_cycle;Signal;HPM_P1;HPM_P2
2023/07/22 00:02:10;0.00;0.00;0.62;0.00;0.00;0.62;2.00;1.30;;;29.90;23.30;;;;;;2240129;61;20384;-65
2023/07/22 00:04:55;0.00;0.00;0.62;0.00;0.00;0.62;2.10;1.60;;;29.90;23.30;;;;;;2240398;61;20393;-65
2023/07/22 00:07:42;0.00;0.00;0.62;0.00;0.00;0.62;1.80;1.40;;;29.90;23.30;;;;;;2239829;61;20413;-66
2023/07/22 00:10:27;0.00;0.00;0.62;0.00;0.00;0.62;1.67;1.20;;;29.90;23.30;;;;;;2239862;61;20369;-65
2023/07/22 00:13:13;0.00;0.00;0.62;0.00;0.00;0.62;1.90;1.30;;;29.90;23.30;;;;;;2237210;61;20776;-65
2023/07/22 00:15:59;0.00;0.00;0.62;0.00;0.00;0.62;1.90;1.63;;;29.90;23.30;;;;;;2240087;61;20930;-66
2023/07/22 00:18:43;0.00;0.00;0.62;0.00;0.00;0.62;2.20;1.23;;;29.90;23.30;;;;;;2236819;61;20927;-64
2023/07/22 00:21:29;0.00;0.00;0.62;0.00;0.00;0.62;2.13;1.50;;;29.90;23.30;;;;;;2239861;61;20373;-64
2023/07/22 00:24:13;0.00;0.00;0.62;0.00;0.00;0.62;4.47;2.00;;;29.90;23.30;;;;;;2239896;61;20471;-64
2023/07/22 00:26:58;0.00;0.00;0.62;0.00;0.00;0.62;2.23;1.50;;;29.90;23.30;;;;;;2240164;61;20401;-63
2023/07/22 00:29:44;0.00;0.00;0.62;0.00;0.00;0.62;2.73;1.63;;;29.90;23.30;;;;;;2236305;61;20457;-65
2023/07/22 00:32:28;0.00;0.00;0.62;0.00;0.00;0.62;2.63;2.00;;;29.90;23.30;;;;;;2237272;61;20369;-64
2023/07/22 00:35:13;0.00;0.00;0.62;0.00;0.00;0.62;2.23;1.43;;;29.90;23.30;;;;;;2237030;61;20393;-64
2023/07/22 00:37:58;0.00;0.00;0.62;0.00;0.00;0.62;2.10;1.67;;;29.90;23.30;;;;;;2239808;61;20381;-64
2023/07/22 00:40:43;0.00;0.00;0.62;0.00;0.00;0.62;2.20;1.70;;;29.90;23.30;;;;;;2240521;61;20374;-63
2023/07/22 00:43:28;0.00;0.00;0.62;0.00;0.00;0.62;2.10;1.80;;;29.90;23.30;;;;;;2239898;61;20397;-64
2023/07/22 00:46:14;0.00;0.00;0.62;0.00;0.00;0.62;2.03;1.63;;;29.90;23.30;;;;;;2240249;61;20942;-63
2023/07/22 00:48:59;0.00;0.00;0.62;0.00;0.00;0.62;2.33;1.67;;;29.90;23.30;;;;;;2236773;61;20393;-63
2023/07/22 00:51:43;0.00;0.00;0.62;0.00;0.00;0.62;2.50;1.80;;;29.80;23.30;;;;;;2236805;61;20405;-63
2023/07/22 00:54:28;0.00;0.00;0.62;0.00;0.00;0.62;2.43;1.90;;;29.90;23.30;;;;;;2237111;61;20372;-63
2023/07/22 00:57:14;0.00;0.00;0.62;0.00;0.00;0.62;3.60;1.70;;;29.90;23.90;;;;;;2237050;61;20393;-64
2023/07/22 00:59:59;0.00;0.00;0.62;0.00;0.00;0.62;2.20;1.70;;;29.90;23.30;;;;;;2239405;61;20441;-64
2023/07/22 01:02:46;0.00;0.00;0.62;0.00;0.00;0.62;2.10;1.90;;;29.90;23.30;;;;;;2240307;61;20413;-64
2023/07/22 01:05:31;0.00;0.00;0.62;0.00;0.00;0.62;2.33;1.83;;;29.80;23.30;;;;;;2236563;61;20825;-64
2023/07/22 01:08:15;0.00;0.00;0.62;0.00;0.00;0.62;2.63;2.23;;;29.80;23.30;;;;;;2239638;61;20420;-63
2023/07/22 01:11:00;0.00;0.00;0.62;0.00;0.00;0.62;2.10;1.80;;;29.80;23.30;;;;;;2240279;61;20369;-64
2023/07/22 01:13:45;0.00;0.00;0.62;0.00;0.00;0.62;2.03;1.70;;;29.80;23.80;;;;;;2236859;61;20366;-64
2023/07/22 01:16:30;0.00;0.00;0.62;0.00;0.00;0.62;2.30;1.90;;;29.80;23.20;;;;;;2240145;61;20368;-64
2023/07/22 01:19:18;0.00;0.00;0.62;0.00;0.00;0.62;2.13;1.80;;;29.80;23.30;;;;;;2236533;61;20422;-65
2023/07/22 01:22:07;0.00;0.00;0.62;0.00;0.00;0.62;2.70;2.00;;;29.80;23.30;;;;;;2239744;61;20377;-63
2023/07/22 01:24:54;0.00;0.00;0.62;0.00;0.00;0.62;2.33;1.80;;;29.80;23.30;;;;;;2240274;61;20729;-66
2023/07/22 01:27:39;0.00;0.00;0.62;0.00;0.00;0.62;2.43;2.23;;;29.80;23.30;;;;;;2240028;61;21049;-64
2023/07/22 01:30:26;0.00;0.00;0.62;0.00;0.00;0.62;2.03;1.83;;;29.80;23.80;;;;;;2236415;61;20825;-64
2023/07/22 01:33:11;0.00;0.00;0.62;0.00;0.00;0.62;2.30;1.60;;;29.80;23.20;;;;;;2239973;61;20409;-65
2023/07/22 01:35:56;0.00;0.00;0.62;0.00;0.00;0.62;2.47;2.13;;;29.80;23.20;;;;;;2240022;61;20381;-64
2023/07/22 01:38:40;0.00;0.00;0.62;0.00;0.00;0.62;2.70;2.27;;;29.70;23.20;;;;;;2236250;61;20529;-64
2023/07/22 01:41:26;0.00;0.00;0.62;0.00;0.00;0.62;2.70;1.90;;;29.70;23.20;;;;;;2240025;61;20401;-64
2023/07/22 01:44:11;0.00;0.00;0.62;0.00;0.00;0.62;2.57;2.00;;;29.80;23.30;;;;;;2239716;61;20995;-65
2023/07/22 01:46:57;0.00;0.00;0.62;0.00;0.00;0.62;2.17;1.80;;;29.80;23.30;;;;;;2239958;61;20369;-65
2023/07/22 01:49:43;0.00;0.00;0.62;0.00;0.00;0.62;2.33;1.93;;;29.70;23.20;;;;;;2239731;61;20368;-65
2023/07/22 01:52:27;0.00;0.00;0.62;0.00;0.00;0.62;2.47;2.03;;;29.70;23.20;;;;;;2240007;61;20524;-64
2023/07/22 01:55:13;0.00;0.00;0.62;0.00;0.00;0.62;2.10;1.80;;;29.70;23.20;;;;;;2236998;61;20369;-65
2023/07/22 01:57:59;0.00;0.00;0.62;0.00;0.00;0.62;2.23;2.00;;;29.70;23.20;;;;;;2236784;61;20788;-65
2023/07/22 02:00:43;0.00;0.00;0.62;0.00;0.00;0.62;3.37;2.50;;;29.70;23.20;;;;;;2236433;61;20402;-65
2023/07/22 02:03:28;0.00;0.00;0.62;0.00;0.00;0.62;3.00;2.30;;;29.70;23.20;;;;;;2240029;61;20409;-65
2023/07/22 02:06:13;0.00;0.00;0.62;0.00;0.00;0.62;2.30;1.87;;;29.70;23.80;;;;;;2236397;61;20554;-65
2023/07/22 02:08:58;0.00;0.00;0.62;0.00;0.00;0.62;2.13;1.77;;;29.70;23.20;;;;;;2236552;61;20406;-66
2023/07/22 02:11:43;0.00;0.00;0.62;0.00;0.00;0.62;2.57;2.10;;;29.70;23.20;;;;;;2240117;61;20369;-65
2023/07/22 02:14:29;0.00;0.00;0.62;0.00;0.00;0.62;2.70;1.87;;;29.70;23.20;;;;;;2237363;61;20385;-65
2023/07/22 02:17:14;0.00;0.00;0.62;0.00;0.00;0.62;2.00;1.80;;;29.70;23.20;;;;;;2242148;61;20428;-66
2023/07/22 02:19:58;0.00;0.00;0.62;0.00;0.00;0.62;2.70;2.00;;;29.70;23.20;;;;;;2239565;61;20366;-65
2023/07/22 02:22:43;0.00;0.00;0.62;0.00;0.00;0.62;2.07;1.87;;;29.70;23.20;;;;;;2239655;61;20502;-66
2023/07/22 02:25:28;0.00;0.00;0.62;0.00;0.00;0.62;2.23;1.80;;;29.70;23.20;;;;;;2239898;61;20397;-66
2023/07/22 02:28:13;0.00;0.00;0.62;0.00;0.00;0.62;3.07;2.20;;;29.70;23.20;;;;;;2242693;61;20389;-66
2023/07/22 02:31:04;0.00;0.00;0.62;0.00;0.00;0.62;3.10;2.00;;;29.60;23.20;;;;;;2243098;61;20361;-66
2023/07/22 02:33:49;0.00;0.00;0.62;0.00;0.00;0.62;2.60;2.00;;;29.70;23.20;;;;;;2240230;61;20528;-65
2023/07/22 02:36:34;0.00;0.00;0.62;0.00;0.00;0.62;2.37;1.90;;;29.60;23.20;;;;;;2242717;61;20857;-66
2023/07/22 02:39:19;0.00;0.00;0.62;0.00;0.00;0.62;2.80;2.23;;;29.70;23.20;;;;;;2239830;61;20405;-66
2023/07/22 02:42:04;0.00;0.00;0.62;0.00;0.00;0.62;3.00;2.50;;;29.60;23.20;;;;;;2239158;61;20385;-65
2023/07/22 02:44:49;0.00;0.00;0.62;0.00;0.00;0.62;3.33;2.30;;;29.60;23.20;;;;;;2240902;61;20937;-67
2023/07/22 02:47:35;0.00;0.00;0.62;0.00;0.00;0.62;3.77;2.50;;;29.60;23.20;;;;;;2240829;61;21051;-65
2023/07/22 02:50:20;0.00;0.00;0.62;0.00;0.00;0.62;2.70;2.13;;;29.60;23.20;;;;;;2240362;61;20354;-66
2023/07/22 02:53:05;0.00;0.00;0.62;0.00;0.00;0.62;3.73;2.70;;;29.60;23.20;;;;;;2241145;61;20429;-64
2023/07/22 02:55:50;0.00;0.00;0.62;0.00;0.00;0.62;2.70;2.47;;;29.60;23.20;;;;;;2240778;61;20489;-63
2023/07/22 02:58:36;0.00;0.00;0.62;0.00;0.00;0.62;2.80;1.87;;;29.60;23.20;;;;;;2240353;61;20397;-64
2023/07/22 03:01:21;0.00;0.00;0.62;0.00;0.00;0.62;2.33;1.90;;;29.60;23.20;;;;;;2240965;61;20358;-66
2023/07/22 03:04:07;0.00;0.00;0.62;0.00;0.00;0.62;2.50;2.07;;;29.60;23.70;;;;;;2240648;61;20386;-66
2023/07/22 03:06:52;0.00;0.00;0.62;0.00;0.00;0.62;3.70;2.43;;;29.60;23.20;;;;;;2240946;61;20389;-65
2023/07/22 03:09:36;0.00;0.00;0.62;0.00;0.00;0.62;2.70;2.30;;;29.60;23.20;;;;;;2237542;61;20414;-65
2023/07/22 03:12:22;0.00;0.00;0.62;0.00;0.00;0.62;3.90;2.97;;;29.60;23.20;;;;;;2240797;61;20861;-65
2023/07/22 03:15:08;0.00;0.00;0.62;0.00;0.00;0.62;2.87;2.40;;;29.60;23.20;;;;;;2240785;61;20342;-64
2023/07/22 03:17:54;0.00;0.00;0.62;0.00;0.00;0.62;3.00;2.30;;;29.60;23.20;;;;;;2240957;61;20473;-65
2023/07/22 03:20:41;0.00;0.00;0.62;0.00;0.00;0.62;3.00;2.20;;;29.60;23.20;;;;;;2237492;61;20365;-65
2023/07/22 03:23:26;0.00;0.00;0.62;0.00;0.00;0.62;3.00;2.23;;;29.60;23.20;;;;;;2240202;61;20433;-67
2023/07/22 03:26:10;0.00;0.00;0.62;0.00;0.00;0.62;3.57;2.80;;;29.60;23.20;;;;;;2240169;61;20839;-64
2023/07/22 03:28:55;0.00;0.00;0.62;0.00;0.00;0.62;4.53;2.97;;;29.50;23.10;;;;;;2239991;61;20390;-64
2023/07/22 03:31:40;0.00;0.00;0.62;0.00;0.00;0.62;3.43;2.93;;;29.50;23.10;;;;;;2234723;61;20375;-64
2023/07/22 03:34:24;0.00;0.00;0.62;0.00;0.00;0.62;2.83;2.33;;;29.50;23.10;;;;;;2241632;61;20377;-65
2023/07/22 03:37:10;0.00;0.00;0.62;0.00;0.00;0.62;2.90;2.53;;;29.50;23.10;;;;;;2239551;61;20486;-66
2023/07/22 03:39:55;0.00;0.00;0.62;0.00;0.00;0.62;3.47;2.97;;;29.50;23.10;;;;;;2238858;61;20370;-65
2023/07/22 03:42:41;0.00;0.00;0.62;0.00;0.00;0.62;3.80;2.80;;;29.50;23.10;;;;;;2242183;61;20851;-66
2023/07/22 03:45:25;0.00;0.00;0.62;0.00;0.00;0.62;3.40;2.83;;;29.50;23.10;;;;;;2239570;61;20389;-66
2023/07/22 03:48:10;0.00;0.00;0.62;0.00;0.00;0.62;3.40;2.57;;;29.50;23.10;;;;;;2242541;61;20406;-65
2023/07/22 03:50:54;0.00;0.00;0.62;0.00;0.00;0.62;3.10;2.80;;;29.50;23.70;;;;;;2242614;61;20365;-66
2023/07/22 03:53:41;0.00;0.00;0.62;0.00;0.00;0.62;2.90;2.60;;;29.50;23.10;;;;;;2242925;61;20406;-65
2023/07/22 03:56:25;0.00;0.00;0.62;0.00;0.00;0.62;3.53;2.80;;;29.50;23.10;;;;;;2242697;61;20852;-65
2023/07/22 03:59:10;0.00;0.00;0.62;0.00;0.00;0.62;3.73;2.77;;;29.50;23.10;;;;;;2238849;61;20401;-64
2023/07/22 04:01:55;0.00;0.00;0.62;0.00;0.00;0.62;3.30;3.00;;;29.50;23.10;;;;;;2239454;61;20366;-65
2023/07/22 04:04:39;0.00;0.00;0.62;0.00;0.00;0.62;3.87;3.27;;;29.50;23.10;;;;;;2242081;61;20401;-65
2023/07/22 04:07:24;0.00;0.00;0.62;0.00;0.00;0.62;4.07;2.90;;;29.50;23.10;;;;;;2242335;61;20424;-65
2023/07/22 04:10:10;0.00;0.00;0.62;0.00;0.00;0.62;3.97;2.97;;;29.50;23.10;;;;;;2242528;61;20395;-65
2023/07/22 04:12:55;0.00;0.00;0.62;0.00;0.00;0.62;4.10;2.90;;;29.50;23.10;;;;;;2242250;61;20400;-65
2023/07/22 04:15:40;0.00;0.00;0.62;0.00;0.00;0.62;3.07;2.70;;;29.40;23.00;;;;;;2239565;61;20369;-66
2023/07/22 04:18:24;0.00;0.00;0.62;0.00;0.00;0.62;4.43;2.30;;;29.40;23.00;;;;;;2241781;61;20381;-66
2023/07/22 04:21:09;0.00;0.00;0.62;0.00;0.00;0.62;4.90;3.40;;;29.40;23.00;;;;;;2242518;61;20369;-65
2023/07/22 04:23:56;0.00;0.00;0.62;0.00;0.00;0.62;4.33;3.03;;;29.40;23.00;;;;;;2239846;61;20381;-66
2023/07/22 04:26:46;0.00;0.00;0.62;0.00;0.00;0.62;3.37;3.07;;;29.40;23.00;;;;;;2241994;61;20599;-66
2023/07/22 04:29:31;0.00;0.00;0.62;0.00;0.00;0.62;4.10;3.13;;;29.40;23.00;;;;;;2242115;61;20393;-65
2023/07/22 04:32:15;0.00;0.00;0.62;0.00;0.00;0.62;4.20;3.03;;;29.40;23.00;;;;;;2242799;61;20421;-66
2023/07/22 04:35:01;0.00;0.00;0.62;0.00;0.00;0.62;3.83;2.93;;;29.40;23.00;;;;;;2239285;61;20444;-65
2023/07/22 04:37:45;0.00;0.00;0.62;0.00;0.00;0.62;4.00;3.23;;;29.40;23.00;;;;;;2242757;61;20397;-66
2023/07/22 04:40:30;0.00;0.00;0.62;0.00;0.00;0.62;3.23;2.70;;;29.40;23.10;;;;;;2242087;61;20369;-65
2023/07/22 04:43:17;0.00;0.00;0.62;0.00;0.00;0.62;3.70;3.30;;;29.40;23.00;;;;;;2242485;61;20400;-66
2023/07/22 04:46:02;0.00;0.00;0.62;0.00;0.00;0.62;3.30;3.00;;;29.40;23.00;;;;;;2242768;61;20369;-65
2023/07/22 04:48:46;0.00;0.00;0.62;0.00;0.00;0.62;3.67;2.93;;;29.40;23.00;;;;;;2242086;61;20694;-65
2023/07/22 04:51:31;0.00;0.00;0.62;0.00;0.00;0.62;4.17;3.13;;;29.40;23.00;;;;;;2239715;61;20365;-66
2023/07/22 04:54:16;0.00;0.00;0.62;0.00;0.00;0.62;3.60;2.87;;;29.40;23.00;;;;;;2243080;61;20358;-65
2023/07/22 04:57:02;0.00;0.00;0.62;0.00;0.00;0.62;4.37;3.30;;;29.40;23.00;;;;;;2242269;61;20510;-65
2023/07/22 04:59:48;0.00;0.00;0.62;0.00;0.00;0.62;3.60;3.00;;;29.40;23.00;;;;;;2242603;61;20580;-65
2023/07/22 05:02:33;0.00;0.00;0.62;0.00;0.00;0.62;3.30;2.73;;;29.30;23.00;;;;;;2242341;61;20366;-65
2023/07/22 05:05:18;0.00;0.00;0.62;0.00;0.00;0.62;4.00;3.20;;;29.40;23.00;;;;;;2242514;61;20393;-65
2023/07/22 05:08:02;0.00;0.00;0.62;0.00;0.00;0.62;3.60;3.13;;;29.40;23.00;;;;;;2242907;61;20385;-65
2023/07/22 05:10:47;0.00;0.00;0.62;0.00;0.00;0.62;3.60;3.23;;;29.40;23.00;;;;;;2242351;61;20377;-65
2023/07/22 05:13:32;0.00;0.00;0.62;0.00;0.00;0.62;4.10;3.47;;;29.40;23.00;;;;;;2242638;61;20487;-65
2023/07/22 05:16:18;0.00;0.00;0.62;0.00;0.00;0.62;5.07;3.97;;;29.40;23.00;;;;;;2242653;61;20882;-65
2023/07/22 05:19:05;0.00;0.00;0.62;0.00;0.00;0.62;4.63;3.67;;;29.30;23.00;;;;;;2242149;61;20401;-65
2023/07/22 05:21:50;0.00;0.00;0.62;0.00;0.00;0.62;3.33;2.93;;;29.30;23.00;;;;;;2242986;61;20365;-65
2023/07/22 05:24:34;0.00;0.00;0.62;0.00;0.00;0.62;3.80;3.30;;;29.30;23.00;;;;;;2242369;61;20385;-65
2023/07/22 05:27:19;0.00;0.00;0.62;0.00;0.00;0.62;3.83;3.43;;;29.30;23.00;;;;;;2242654;61;20462;-65
2023/07/22 05:30:05;0.00;0.00;0.62;0.00;0.00;0.62;4.63;3.90;;;29.30;23.00;;;;;;2242388;61;20702;-64
2023/07/22 05:32:53;0.00;0.00;0.62;0.00;0.00;0.62;4.13;3.67;;;29.30;23.00;;;;;;2242854;61;20448;-65
2023/07/22 05:35:38;0.00;0.00;0.62;0.00;0.00;0.62;4.37;3.80;;;29.30;23.00;;;;;;2242384;61;20466;-65
2023/07/22 05:38:23;0.00;0.00;0.62;0.00;0.00;0.62;4.30;3.27;;;29.30;23.00;;;;;;2242461;61;20393;-65
2023/07/22 05:41:08;0.00;0.00;0.62;0.00;0.00;0.62;4.17;3.40;;;29.30;23.00;;;;;;2242005;61;20371;-65
2023/07/22 05:43:52;0.00;0.00;0.62;0.00;0.00;0.62;4.10;3.20;;;29.30;23.00;;;;;;2242937;61;20452;-65
2023/07/22 05:46:38;0.00;0.00;0.62;0.00;0.00;0.62;4.20;3.50;;;29.30;23.00;;;;;;2242496;61;20358;-65
2023/07/22 05:49:24;0.00;0.00;0.62;0.00;0.00;0.62;4.17;3.77;;;29.30;23.00;;;;;;2242108;61;20385;-65
2023/07/22 05:52:09;0.00;0.00;0.62;0.00;0.00;0.62;4.43;4.03;;;29.30;23.00;;;;;;2242821;61;20384;-65
2023/07/22 05:54:54;0.00;0.00;0.62;0.00;0.00;0.62;3.83;3.40;;;29.30;23.00;;;;;;2242596;61;20421;-65
2023/07/22 05:57:39;0.00;0.00;0.62;0.00;0.00;0.62;4.20;3.77;;;29.30;23.00;;;;;;2242500;61;20408;-65
2023/07/22 06:00:23;0.00;0.00;0.62;0.00;0.00;0.62;4.73;4.20;;;29.30;23.00;;;;;;2242232;61;20400;-65
2023/07/22 06:03:08;0.00;0.00;0.62;0.00;0.00;0.62;5.03;4.20;;;29.30;23.00;;;;;;2242227;61;20426;-64
2023/07/22 06:05:54;0.00;0.00;0.62;0.00;0.00;0.62;4.03;3.50;;;29.30;23.00;;;;;;2242699;61;20388;-65
2023/07/22 06:08:39;0.00;0.00;0.62;0.00;0.00;0.62;4.03;3.60;;;29.30;23.00;;;;;;2242155;61;20385;-65
2023/07/22 06:11:24;0.00;0.00;0.62;0.00;0.00;0.62;6.30;4.00;;;29.30;23.00;;;;;;2242486;61;20433;-64
2023/07/22 06:14:09;0.00;0.00;0.62;0.00;0.00;0.62;4.73;4.13;;;29.30;23.10;;;;;;2242827;61;20356;-65
2023/07/22 06:16:54;0.00;0.00;0.62;0.00;0.00;0.62;5.13;4.07;;;29.30;23.10;;;;;;2242324;61;20374;-65
2023/07/22 06:19:38;0.00;0.00;0.62;0.00;0.00;0.62;4.87;4.10;;;29.30;23.10;;;;;;2242266;61;20955;-64
2023/07/22 06:22:24;0.00;0.00;0.62;0.00;0.00;0.62;4.00;3.53;;;29.30;23.10;;;;;;2242424;61;20514;-64
2023/07/22 06:25:09;0.00;0.00;0.62;0.00;0.00;0.62;5.07;4.10;;;29.30;23.10;;;;;;2236198;61;20458;-65
2023/07/22 06:27:54;0.00;0.00;0.62;0.00;0.00;0.62;4.10;3.70;;;29.30;23.10;;;;;;2242478;61;20961;-65
2023/07/22 06:30:38;0.00;0.00;0.62;0.00;0.00;0.62;5.13;3.70;;;29.30;23.10;;;;;;2242357;61;20440;-65
2023/07/22 06:33:23;0.00;0.00;0.62;0.00;0.00;0.62;4.13;3.20;;;29.30;23.10;;;;;;2242122;61;20951;-65
2023/07/22 06:36:08;0.00;0.00;0.62;0.00;0.00;0.62;4.37;3.77;;;29.30;23.10;;;;;;2242348;61;20357;-65
2023/07/22 06:38:54;0.00;0.00;0.62;0.00;0.00;0.62;4.60;3.70;;;29.30;23.10;;;;;;2242044;61;20413;-65
2023/07/22 06:41:39;0.00;0.00;0.62;0.00;0.00;0.62;3.90;3.27;;;29.30;23.10;;;;;;2238949;61;20413;-65
2023/07/22 06:44:24;0.00;0.00;0.62;0.00;0.00;0.62;4.73;3.83;;;29.30;23.10;;;;;;2239762;61;20393;-65
2023/07/22 06:47:09;0.00;0.00;0.62;0.00;0.00;0.62;3.67;3.37;;;29.30;23.70;;;;;;2242388;61;20406;-65
2023/07/22 06:49:54;0.00;0.00;0.62;0.00;0.00;0.62;4.10;3.60;;;29.30;23.10;;;;;;2242189;61;20439;-65
2023/07/22 06:52:39;0.00;0.00;0.62;0.00;0.00;0.62;4.97;4.30;;;29.30;23.10;;;;;;2242549;61;21208;-65
2023/07/22 06:55:25;0.00;0.00;0.62;0.00;0.00;0.62;4.03;3.53;;;29.30;23.10;;;;;;2239290;61;20707;-65
2023/07/22 06:58:10;0.00;0.00;0.62;0.00;0.00;0.62;4.47;3.87;;;29.30;23.10;;;;;;2242461;61;20417;-65
2023/07/22 07:00:55;0.00;0.00;0.62;0.00;0.00;0.62;4.00;3.53;;;29.30;23.10;;;;;;2243183;61;20365;-65
2023/07/22 07:03:40;0.00;0.00;0.62;0.00;0.00;0.62;3.90;3.50;;;29.30;23.10;;;;;;2242953;61;20372;-64
2023/07/22 07:06:24;0.00;0.00;0.62;0.00;0.00;0.62;3.43;3.13;;;29.30;23.10;;;;;;2243549;61;20376;-66
2023/07/22 07:09:09;0.00;0.00;0.62;0.00;0.00;0.62;4.10;3.67;;;29.30;23.10;;;;;;2242107;61;20370;-65
2023/07/22 07:11:56;0.00;0.00;0.62;0.00;0.00;0.62;4.83;4.00;;;29.30;23.10;;;;;;2242336;61;20816;-64
2023/07/22 07:14:41;0.00;0.00;0.62;0.00;0.00;0.62;3.57;3.10;;;29.30;23.20;;;;;;2240967;61;20971;-64
2023/07/22 07:17:26;0.00;0.00;0.62;0.00;0.00;0.62;5.03;4.20;;;29.30;23.70;;;;;;2237363;61;20473;-64
2023/07/22 07:20:11;0.00;0.00;0.62;0.00;0.00;0.62;4.20;3.63;;;29.30;23.20;;;;;;2240605;61;20497;-64
2023/07/22 07:22:55;0.00;0.00;0.62;0.00;0.00;0.62;3.77;3.47;;;29.30;23.20;;;;;;2240788;61;20349;-65
2023/07/22 07:25:40;0.00;0.00;0.62;0.00;0.00;0.62;4.70;3.80;;;29.30;23.20;;;;;;2237418;61;20449;-64
2023/07/22 07:28:26;0.00;0.00;0.62;0.00;0.00;0.62;4.23;3.80;;;29.30;23.20;;;;;;2240573;61;20385;-64
2023/07/22 07:31:10;0.00;0.00;0.62;0.00;0.00;0.62;4.30;3.90;;;29.30;23.20;;;;;;2240449;61;20389;-65
2023/07/22 07:33:55;0.00;0.00;0.62;0.00;0.00;0.62;4.13;3.17;;;29.30;23.20;;;;;;2240779;61;20350;-64
2023/07/22 07:36:40;0.00;0.00;0.62;0.00;0.00;0.62;3.90;3.50;;;29.30;23.20;;;;;;2240600;61;20361;-64
2023/07/22 07:39:25;0.00;0.00;0.62;0.00;0.00;0.62;4.60;3.80;;;29.30;23.20;;;;;;2240229;61;20437;-64
2023/07/22 07:42:10;0.00;0.00;0.62;0.00;0.00;0.62;3.27;2.97;;;29.30;23.20;;;;;;2240712;61;20906;-64
2023/07/22 07:44:56;0.00;0.00;0.62;0.00;0.00;0.62;3.57;3.10;;;29.30;23.20;;;;;;2240648;61;20402;-65
2023/07/22 07:47:41;0.00;0.00;0.62;0.00;0.00;0.62;3.70;3.20;;;29.30;23.20;;;;;;2240556;61;20791;-65
2023/07/22 07:50:25;0.00;0.00;0.62;0.00;0.00;0.62;4.60;4.10;;;29.30;23.20;;;;;;2240704;61;20365;-65
2023/07/22 07:53:10;0.00;0.00;0.62;0.00;0.00;0.62;4.37;3.67;;;29.30;23.20;;;;;;2240633;61;20456;-66
2023/07/22 07:55:55;0.00;0.00;0.62;0.00;0.00;0.62;4.10;3.50;;;29.30;23.20;;;;;;2240776;61;20390;-65
2023/07/22 07:58:40;0.00;0.00;0.62;0.00;0.00;0.62;4.87;3.60;;;29.30;23.20;;;;;;2240412;61;20976;-65
2023/07/22 08:01:26;0.00;0.00;0.62;0.00;0.00;0.62;5.60;3.63;;;29.30;23.20;;;;;;2240582;61;20358;-64
2023/07/22 08:04:11;0.00;0.00;0.62;0.00;0.00;0.62;4.10;3.57;;;29.30;23.20;;;;;;2240957;61;20409;-64
2023/07/22 08:06:56;0.00;0.00;0.62;0.00;0.00;0.62;3.63;2.93;;;29.30;23.20;;;;;;2240974;61;20353;-65
2023/07/22 08:09:40;0.00;0.00;0.62;0.00;0.00;0.62;4.27;3.87;;;29.30;23.20;;;;;;2240322;61;20346;-64
2023/07/22 08:12:25;0.00;0.00;0.62;0.00;0.00;0.62;3.87;3.37;;;29.30;23.20;;;;;;2240627;61;20433;-64
2023/07/22 08:15:10;0.00;0.00;0.62;0.00;0.00;0.62;5.20;3.77;;;29.30;23.20;;;;;;2240531;61;20362;-64
2023/07/22 08:17:56;0.00;0.00;0.62;0.00;0.00;0.62;4.47;3.80;;;29.30;23.20;;;;;;2240642;61;20918;-64
2023/07/22 08:20:41;0.00;0.00;0.62;0.00;0.00;0.62;4.23;3.83;;;29.30;23.20;;;;;;2240727;61;20366;-64
2023/07/22 08:23:26;0.00;0.00;0.62;0.00;0.00;0.62;4.13;3.73;;;29.30;23.20;;;;;;2240449;61;20408;-64
2023/07/22 08:26:10;0.00;0.00;0.62;0.00;0.00;0.62;3.83;3.30;;;29.30;23.20;;;;;;2240547;61;20374;-64
2023/07/22 08:28:55;0.00;0.00;0.62;0.00;0.00;0.62;3.67;3.30;;;29.30;23.20;;;;;;2240656;61;20437;-63
2023/07/22 08:31:40;0.00;0.00;0.62;0.00;0.00;0.62;3.73;3.30;;;29.30;23.20;;;;;;2240426;61;20354;-65
2023/07/22 08:34:26;0.00;0.00;0.62;0.00;0.00;0.62;3.40;3.10;;;29.30;23.20;;;;;;2240711;61;20385;-65
2023/07/22 08:37:11;0.00;0.00;0.62;0.00;0.00;0.62;3.90;3.50;;;29.30;23.20;;;;;;2240193;61;20397;-68
2023/07/22 08:39:56;0.00;0.00;0.62;0.00;0.00;0.62;3.20;2.60;;;29.30;23.20;;;;;;2240224;61;20409;-65
2023/07/22 08:42:41;0.00;0.00;0.62;0.00;0.00;0.62;6.10;3.53;;;29.30;23.20;;;;;;2240588;61;20393;-64
2023/07/22 08:45:29;0.00;0.00;0.62;0.00;0.00;0.62;3.43;3.03;;;29.30;23.20;;;;;;2240603;61;20404;-65
2023/07/22 08:48:18;0.00;0.00;0.62;0.00;0.00;0.62;3.13;2.83;;;29.40;23.30;;;;;;2240471;61;20433;-64
2023/07/22 08:51:10;0.00;0.00;0.62;0.00;0.00;0.62;3.50;2.90;;;29.30;23.30;;;;;;2240567;61;20366;-64
2023/07/22 08:53:59;0.00;0.00;0.62;0.00;0.00;0.62;4.00;3.40;;;29.30;23.30;;;;;;2240385;61;20420;-65
2023/07/22 08:56:44;0.00;0.00;0.62;0.00;0.00;0.62;3.47;3.17;;;29.40;23.30;;;;;;2240435;61;20442;-66
2023/07/22 08:59:29;0.00;0.00;0.62;0.00;0.00;0.62;3.50;2.90;;;29.40;23.30;;;;;;2240378;61;20408;-64
2023/07/22 09:02:14;0.00;0.00;0.62;0.00;0.00;0.62;3.77;3.37;;;29.40;23.30;;;;;;2237239;61;20365;-68
2023/07/22 09:04:59;0.00;0.00;0.62;0.00;0.00;0.62;4.33;3.93;;;29.40;23.30;;;;;;2237359;61;20484;-65
2023/07/22 09:07:48;0.00;0.00;0.62;0.00;0.00;0.62;3.50;3.20;;;29.40;23.30;;;;;;2240310;61;20970;-64
2023/07/22 09:10:34;0.00;0.00;0.62;0.00;0.00;0.62;4.60;3.60;;;29.40;23.30;;;;;;2240457;61;20374;-64
2023/07/22 09:13:20;0.00;0.00;0.62;0.00;0.00;0.62;3.30;3.00;;;29.40;23.30;;;;;;2240955;61;20404;-64
2023/07/22 09:16:05;0.00;0.00;0.62;0.00;0.00;0.62;4.40;3.73;;;29.40;23.30;;;;;;2240278;61;20360;-64
2023/07/22 09:18:54;0.00;0.00;0.62;0.00;0.00;0.62;4.10;3.30;;;29.40;23.30;;;;;;2240351;61;20385;-63
2023/07/22 09:21:39;0.00;0.00;0.62;0.00;0.00;0.62;4.03;3.20;;;29.30;23.80;;;;;;2240414;61;20406;-67
2023/07/22 09:24:30;0.00;0.00;0.62;0.00;0.00;0.62;3.80;3.40;;;29.40;23.30;;;;;;2240374;61;20425;-65
2023/07/22 09:27:15;0.00;0.00;0.62;0.00;0.00;0.62;4.30;3.57;;;29.40;23.40;;;;;;2240660;61;20780;-64
2023/07/22 09:29:59;0.00;0.00;0.62;0.00;0.00;0.62;4.17;3.63;;;29.40;23.40;;;;;;2240308;61;20427;-64
2023/07/22 09:32:44;0.00;0.00;0.62;0.00;0.00;0.62;4.57;3.90;;;29.40;23.90;;;;;;2240515;61;20354;-65
2023/07/22 09:35:42;0.00;0.00;0.62;0.00;0.00;0.62;4.13;3.73;;;29.40;23.40;;;;;;2240653;61;20381;-64
2023/07/22 09:38:27;0.00;0.00;0.62;0.00;0.00;0.62;4.17;3.70;;;29.40;23.40;;;;;;2237101;61;20521;-64
2023/07/22 09:41:19;0.00;0.00;0.62;0.00;0.00;0.62;4.00;3.60;;;29.40;23.40;;;;;;2240690;61;20365;-64
2023/07/22 09:44:10;0.00;0.00;0.62;0.00;0.00;0.62;3.90;3.50;;;29.40;23.90;;;;;;2240142;61;20911;-68
2023/07/22 09:46:54;0.00;0.00;0.62;0.00;0.00;0.62;4.33;3.93;;;29.40;23.40;;;;;;2240520;61;20386;-64
2023/07/22 09:49:42;0.00;0.00;0.62;0.00;0.00;0.62;4.30;3.90;;;29.40;23.40;;;;;;2240295;61;20389;-64
2023/07/22 09:52:27;0.00;0.00;0.62;0.00;0.00;0.62;3.50;3.10;;;29.40;23.40;;;;;;2240218;61;20380;-64
2023/07/22 09:55:12;0.00;0.00;0.62;0.00;0.00;0.62;4.53;4.10;;;29.40;23.40;;;;;;2240451;61;20349;-64
2023/07/22 09:58:00;0.00;0.00;0.62;0.00;0.00;0.62;4.03;3.57;;;29.40;23.40;;;;;;2240508;61;20950;-65
2023/07/22 10:00:50;0.00;0.00;0.62;0.00;0.00;0.62;4.57;3.90;;;29.40;23.40;;;;;;2240184;61;20366;-64
2023/07/22 10:03:37;0.00;0.00;0.62;0.00;0.00;0.62;4.00;3.37;;;29.40;23.40;;;;;;2240527;61;21059;-64
2023/07/22 10:06:24;0.00;0.00;0.62;0.00;0.00;0.62;4.60;3.80;;;29.50;23.50;;;;;;2240183;61;20366;-64
2023/07/22 10:09:12;0.00;0.00;0.62;0.00;0.00;0.62;3.70;3.27;;;29.50;23.50;;;;;;2240094;61;20369;-64
2023/07/22 10:11:58;0.00;0.00;0.62;0.00;0.00;0.62;4.07;3.67;;;29.50;23.50;;;;;;2240295;61;20405;-65
2023/07/22 10:14:45;0.00;0.00;0.62;0.00;0.00;0.62;3.97;3.57;;;29.50;23.50;;;;;;2240099;61;20777;-65
2023/07/22 10:17:30;0.00;0.00;0.62;0.00;0.00;0.62;3.80;3.40;;;29.40;23.40;;;;;;2240528;61;20965;-64
2023/07/22 10:20:15;0.00;0.00;0.62;0.00;0.00;0.62;3.97;3.57;;;29.50;23.50;;;;;;2240506;61;20401;-65
2023/07/22 10:23:01;0.00;0.00;0.62;0.00;0.00;0.62;3.67;3.23;;;29.50;23.50;;;;;;2240051;61;20341;-65
2023/07/22 10:25:47;0.00;0.00;0.62;0.00;0.00;0.62;4.47;4.03;;;29.50;23.50;;;;;;2240170;61;20393;-65
2023/07/22 10:28:33;0.00;0.00;0.62;0.00;0.00;0.62;3.77;3.37;;;29.50;23.50;;;;;;2239852;61;20396;-65
2023/07/22 10:31:20;0.00;0.00;0.62;0.00;0.00;0.62;3.77;3.30;;;29.50;23.50;;;;;;2236997;61;20408;-65
2023/07/22 10:34:05;0.00;0.00;0.62;0.00;0.00;0.62;3.93;3.50;;;29.50;23.50;;;;;;2237567;61;20373;-64
2023/07/22 10:36:50;0.00;0.00;0.62;0.00;0.00;0.62;3.97;3.57;;;29.50;23.50;;;;;;2240593;61;20777;-65
2023/07/22 10:39:34;0.00;0.00;0.62;0.00;0.00;0.62;4.07;3.67;;;29.50;23.50;;;;;;2240779;61;20372;-64
2023/07/22 10:42:25;0.00;0.00;0.62;0.00;0.00;0.62;3.67;3.37;;;29.50;23.50;;;;;;2240590;61;20400;-67
2023/07/22 10:45:25;0.00;0.00;0.62;0.00;0.00;0.62;3.87;3.57;;;29.50;23.50;;;;;;2240838;61;20409;-69
2023/07/22 10:48:13;0.00;0.00;0.62;0.00;0.00;0.62;3.30;3.00;;;29.50;23.50;;;;;;2240898;61;20941;-64
2023/07/22 10:51:05;0.00;0.00;0.62;0.00;0.00;0.62;4.70;4.30;;;29.50;23.50;;;;;;2240946;61;20369;-65
2023/07/22 10:53:50;0.00;0.00;0.62;0.00;0.00;0.62;3.30;3.00;;;29.60;23.60;;;;;;2240705;61;20413;-64